sensor_id;sensor_type;location;lat;lon;timestamp;P1;durP1;ratioP1;P2;durP2;ratioP2
44428;SDS011;30134;47.866;-4.222;2023-12-04T00:01:25;17.42;;;8.40;;
44428;SDS011;30134;47.866;-4.222;2023-12-04T00:03:51;16.23;;;8.65;;
44428;SDS011;30134;47.866;-4.222;2023-12-04T00:06:18;17.23;;;8.82;;
44428;SDS011;30134;47.866;-4.222;2023-12-04T00:08:44;15.55;;;8.10;;
44428;SDS011;30134;47.866;-4.222;2023-12-04T00:11:10;15.48;;;7.57;;
44428;SDS011;30134;47.866;-4.222;2023-12-04T00:13:39;15.18;;;8.57;;
44428;SDS011;30134;47.866;-4.222;2023-12-04T00:16:05;12.95;;;6.82;;
44428;SDS011;30134;47.866;-4.222;2023-12-04T00:18:32;15.13;;;7.45;;
44428;SDS011;30134;47.866;-4.222;2023-12-04T00:20:58;14.25;;;7.45;;
44428;SDS011;30134;47.866;-4.222;2023-12-04T00:23:27;16.33;;;6.90;;
44428;SDS011;30134;47.866;-4.222;2023-12-04T00:26:09;16.27;;;6.95;;
44428;SDS011;30134;47.866;-4.222;2023-12-04T00:28:36;11.98;;;6.35;;
44428;SDS011;30134;47.866;-4.222;2023-12-04T00:31:02;13.52;;;6.47;;
44428;SDS011;30134;47.866;-4.222;2023-12-04T00:33:29;13.18;;;6.65;;
44428;SDS011;30134;47.866;-4.222;2023-12-04T00:35:55;18.38;;;8.27;;
44428;SDS011;30134;47.866;-4.222;2023-12-04T00:38:22;26.73;;;13.50;;
44428;SDS011;30134;47.866;-4.222;2023-12-04T00:40:48;35.15;;;15.40;;
44428;SDS011;30134;47.866;-4.222;2023-12-04T00:43:15;39.13;;;18.23;;
44428;SDS011;30134;47.866;-4.222;2023-12-04T00:45:40;38.00;;;19.20;;
44428;SDS011;30134;47.866;-4.222;2023-12-04T00:48:09;38.78;;;18.67;;
44428;SDS011;30134;47.866;-4.222;2023-12-04T00:50:35;42.05;;;22.50;;
44428;SDS011;30134;47.866;-4.222;2023-12-04T00:53:01;43.75;;;22.08;;
44428;SDS011;30134;47.866;-4.222;2023-12-04T00:55:27;45.60;;;21.77;;
44428;SDS011;30134;47.866;-4.222;2023-12-04T00:57:53;41.17;;;20.15;;
44428;SDS011;30134;47.866;-4.222;2023-12-04T01:00:19;45.58;;;23.45;;
44428;SDS011;30134;47.866;-4.222;2023-12-04T01:02:45;45.13;;;23.05;;
44428;SDS011;30134;47.866;-4.222;2023-12-04T01:05:11;43.30;;;21.38;;
44428;SDS011;30134;47.866;-4.222;2023-12-04T01:07:37;44.50;;;22.27;;
44428;SDS011;30134;47.866;-4.222;2023-12-04T01:10:04;40.03;;;22.13;;
44428;SDS011;30134;47.866;-4.222;2023-12-04T01:12:30;40.63;;;20.45;;
44428;SDS011;30134;47.866;-4.222;2023-12-04T01:14:56;40.95;;;20.98;;
44428;SDS011;30134;47.866;-4.222;2023-12-04T01:17:23;38.88;;;20.63;;
44428;SDS011;30134;47.866;-4.222;2023-12-04T01:19:49;38.03;;;20.35;;
44428;SDS011;30134;47.866;-4.222;2023-12-04T01:22:15;40.42;;;20.40;;
44428;SDS011;30134;47.866;-4.222;2023-12-04T01:24:41;37.83;;;20.50;;
44428;SDS011;30134;47.866;-4.222;2023-12-04T01:27:07;36.30;;;19.27;;
44428;SDS011;30134;47.866;-4.222;2023-12-04T01:29:34;36.85;;;19.90;;
44428;SDS011;30134;47.866;-4.222;2023-12-04T01:32:00;36.80;;;18.30;;
44428;SDS011;30134;47.866;-4.222;2023-12-04T01:34:26;37.03;;;18.75;;
44428;SDS011;30134;47.866;-4.222;2023-12-04T01:36:52;36.78;;;18.58;;
44428;SDS011;30134;47.866;-4.222;2023-12-04T01:39:19;36.88;;;18.05;;
44428;SDS011;30134;47.866;-4.222;2023-12-04T01:41:45;32.22;;;16.88;;
44428;SDS011;30134;47.866;-4.222;2023-12-04T01:44:11;35.88;;;18.00;;
44428;SDS011;30134;47.866;-4.222;2023-12-04T01:46:37;30.17;;;16.30;;
44428;SDS011;30134;47.866;-4.222;2023-12-04T01:49:03;30.13;;;15.15;;
44428;SDS011;30134;47.866;-4.222;2023-12-04T01:51:30;34.75;;;16.55;;
44428;SDS011;30134;47.866;-4.222;2023-12-04T01:53:58;29.05;;;14.95;;
44428;SDS011;30134;47.866;-4.222;2023-12-04T01:56:29;30.02;;;14.48;;
44428;SDS011;30134;47.866;-4.222;2023-12-04T01:58:55;28.55;;;14.63;;
44428;SDS011;30134;47.866;-4.222;2023-12-04T02:01:22;28.05;;;14.88;;
44428;SDS011;30134;47.866;-4.222;2023-12-04T02:03:51;27.65;;;14.60;;
44428;SDS011;30134;47.866;-4.222;2023-12-04T02:06:17;26.50;;;14.50;;
44428;SDS011;30134;47.866;-4.222;2023-12-04T02:08:46;26.60;;;13.75;;
44428;SDS011;30134;47.866;-4.222;2023-12-04T02:11:13;24.35;;;13.48;;
44428;SDS011;30134;47.866;-4.222;2023-12-04T02:13:39;24.73;;;13.38;;
44428;SDS011;30134;47.866;-4.222;2023-12-04T02:16:07;28.95;;;13.90;;
44428;SDS011;30134;47.866;-4.222;2023-12-04T02:18:37;23.60;;;12.45;;
44428;SDS011;30134;47.866;-4.222;2023-12-04T02:21:07;22.50;;;12.63;;
44428;SDS011;30134;47.866;-4.222;2023-12-04T02:23:34;24.15;;;13.68;;
44428;SDS011;30134;47.866;-4.222;2023-12-04T02:26:05;21.15;;;11.88;;
44428;SDS011;30134;47.866;-4.222;2023-12-04T02:28:40;26.17;;;12.15;;
44428;SDS011;30134;47.866;-4.222;2023-12-04T02:31:14;25.23;;;11.57;;
44428;SDS011;30134;47.866;-4.222;2023-12-04T02:33:41;22.95;;;11.65;;
44428;SDS011;30134;47.866;-4.222;2023-12-04T02:36:11;19.58;;;10.63;;
44428;SDS011;30134;47.866;-4.222;2023-12-04T02:38:39;22.27;;;10.82;;
44428;SDS011;30134;47.866;-4.222;2023-12-04T02:41:06;22.30;;;10.88;;
44428;SDS011;30134;47.866;-4.222;2023-12-04T02:43:32;20.38;;;10.35;;
44428;SDS011;30134;47.866;-4.222;2023-12-04T02:46:01;19.10;;;9.70;;
44428;SDS011;30134;47.866;-4.222;2023-12-04T02:48:28;20.75;;;10.68;;
44428;SDS011;30134;47.866;-4.222;2023-12-04T02:50:57;17.98;;;9.93;;
44428;SDS011;30134;47.866;-4.222;2023-12-04T02:53:23;16.45;;;9.40;;
44428;SDS011;30134;47.866;-4.222;2023-12-04T02:55:49;17.85;;;9.20;;
44428;SDS011;30134;47.866;-4.222;2023-12-04T02:58:15;19.30;;;9.40;;
44428;SDS011;30134;47.866;-4.222;2023-12-04T03:00:41;18.02;;;8.43;;
44428;SDS011;30134;47.866;-4.222;2023-12-04T03:03:07;16.13;;;8.85;;
44428;SDS011;30134;47.866;-4.222;2023-12-04T03:05:33;17.92;;;9.38;;
44428;SDS011;30134;47.866;-4.222;2023-12-04T03:08:00;17.73;;;8.20;;
44428;SDS011;30134;47.866;-4.222;2023-12-04T03:10:29;15.60;;;8.40;;
44428;SDS011;30134;47.866;-4.222;2023-12-04T03:12:55;14.88;;;7.63;;
44428;SDS011;30134;47.866;-4.222;2023-12-04T03:15:21;16.83;;;7.72;;
44428;SDS011;30134;47.866;-4.222;2023-12-04T03:17:48;16.13;;;7.70;;
44428;SDS011;30134;47.866;-4.222;2023-12-04T03:20:15;15.07;;;7.53;;
44428;SDS011;30134;47.866;-4.222;2023-12-04T03:22:41;19.42;;;7.75;;
44428;SDS011;30134;47.866;-4.222;2023-12-04T03:25:10;14.45;;;7.35;;
44428;SDS011;30134;47.866;-4.222;2023-12-04T03:27:37;13.95;;;6.65;;
44428;SDS011;30134;47.866;-4.222;2023-12-04T03:30:04;12.63;;;6.75;;
44428;SDS011;30134;47.866;-4.222;2023-12-04T03:32:31;14.23;;;6.90;;
44428;SDS011;30134;47.866;-4.222;2023-12-04T03:34:58;12.85;;;6.93;;
44428;SDS011;30134;47.866;-4.222;2023-12-04T03:37:24;12.20;;;6.45;;
44428;SDS011;30134;47.866;-4.222;2023-12-04T03:39:50;10.57;;;6.18;;
44428;SDS011;30134;47.866;-4.222;2023-12-04T03:42:16;15.07;;;7.00;;
44428;SDS011;30134;47.866;-4.222;2023-12-04T03:44:42;11.05;;;6.18;;
44428;SDS011;30134;47.866;-4.222;2023-12-04T03:47:08;10.77;;;5.95;;
44428;SDS011;30134;47.866;-4.222;2023-12-04T03:49:35;9.70;;;5.80;;
44428;SDS011;30134;47.866;-4.222;2023-12-04T03:52:01;12.65;;;5.25;;
44428;SDS011;30134;47.866;-4.222;2023-12-04T03:54:27;14.02;;;5.90;;
44428;SDS011;30134;47.866;-4.222;2023-12-04T03:56:53;11.00;;;5.53;;
44428;SDS011;30134;47.866;-4.222;2023-12-04T03:59:19;10.07;;;5.60;;
44428;SDS011;30134;47.866;-4.222;2023-12-04T04:01:45;9.63;;;5.22;;
44428;SDS011;30134;47.866;-4.222;2023-12-04T04:04:11;10.70;;;5.75;;
44428;SDS011;30134;47.866;-4.222;2023-12-04T04:06:38;8.35;;;5.03;;
44428;SDS011;30134;47.866;-4.222;2023-12-04T04:09:04;11.38;;;5.03;;
44428;SDS011;30134;47.866;-4.222;2023-12-04T04:11:31;10.63;;;5.05;;
44428;SDS011;30134;47.866;-4.222;2023-12-04T04:13:57;13.50;;;4.95;;
44428;SDS011;30134;47.866;-4.222;2023-12-04T04:16:23;9.65;;;4.53;;
44428;SDS011;30134;47.866;-4.222;2023-12-04T04:18:49;10.23;;;4.78;;
44428;SDS011;30134;47.866;-4.222;2023-12-04T04:21:15;8.63;;;4.38;;
44428;SDS011;30134;47.866;-4.222;2023-12-04T04:23:41;9.65;;;5.10;;
44428;SDS011;30134;47.866;-4.222;2023-12-04T04:26:07;8.13;;;4.85;;
44428;SDS011;30134;47.866;-4.222;2023-12-04T04:28:33;10.32;;;4.95;;
44428;SDS011;30134;47.866;-4.222;2023-12-04T04:30:59;8.88;;;4.40;;
44428;SDS011;30134;47.866;-4.222;2023-12-04T04:33:25;8.73;;;3.95;;
44428;SDS011;30134;47.866;-4.222;2023-12-04T04:35:51;8.27;;;4.65;;
44428;SDS011;30134;47.866;-4.222;2023-12-04T04:38:21;9.00;;;3.80;;
44428;SDS011;30134;47.866;-4.222;2023-12-04T04:40:47;7.13;;;3.90;;
44428;SDS011;30134;47.866;-4.222;2023-12-04T04:43:13;8.20;;;4.10;;
44428;SDS011;30134;47.866;-4.222;2023-12-04T04:45:39;10.32;;;4.50;;
44428;SDS011;30134;47.866;-4.222;2023-12-04T04:48:05;9.05;;;3.92;;
44428;SDS011;30134;47.866;-4.222;2023-12-04T04:50:31;6.68;;;3.60;;
44428;SDS011;30134;47.866;-4.222;2023-12-04T04:52:57;7.68;;;3.80;;
44428;SDS011;30134;47.866;-4.222;2023-12-04T04:55:23;7.28;;;3.45;;
44428;SDS011;30134;47.866;-4.222;2023-12-04T04:57:49;8.45;;;3.55;;
44428;SDS011;30134;47.866;-4.222;2023-12-04T05:00:17;7.30;;;3.40;;
44428;SDS011;30134;47.866;-4.222;2023-12-04T05:02:44;7.57;;;3.40;;
44428;SDS011;30134;47.866;-4.222;2023-12-04T05:05:11;6.60;;;2.90;;
44428;SDS011;30134;47.866;-4.222;2023-12-04T05:07:37;5.20;;;3.22;;
44428;SDS011;30134;47.866;-4.222;2023-12-04T05:10:03;5.53;;;2.90;;
44428;SDS011;30134;47.866;-4.222;2023-12-04T05:12:30;5.07;;;2.78;;
44428;SDS011;30134;47.866;-4.222;2023-12-04T05:14:56;7.32;;;3.60;;
44428;SDS011;30134;47.866;-4.222;2023-12-04T05:17:22;5.53;;;2.90;;
44428;SDS011;30134;47.866;-4.222;2023-12-04T05:19:49;5.32;;;2.63;;
44428;SDS011;30134;47.866;-4.222;2023-12-04T05:22:15;5.93;;;2.90;;
44428;SDS011;30134;47.866;-4.222;2023-12-04T05:24:44;5.60;;;2.88;;
44428;SDS011;30134;47.866;-4.222;2023-12-04T05:27:13;7.93;;;3.25;;
44428;SDS011;30134;47.866;-4.222;2023-12-04T05:29:42;5.20;;;2.65;;
44428;SDS011;30134;47.866;-4.222;2023-12-04T05:32:11;6.57;;;2.97;;
44428;SDS011;30134;47.866;-4.222;2023-12-04T05:34:37;4.90;;;2.72;;
44428;SDS011;30134;47.866;-4.222;2023-12-04T05:37:04;5.90;;;2.78;;
44428;SDS011;30134;47.866;-4.222;2023-12-04T05:39:30;5.35;;;2.60;;
44428;SDS011;30134;47.866;-4.222;2023-12-04T05:41:56;5.20;;;2.80;;
44428;SDS011;30134;47.866;-4.222;2023-12-04T05:44:25;6.18;;;2.65;;
44428;SDS011;30134;47.866;-4.222;2023-12-04T05:46:51;4.60;;;1.92;;
44428;SDS011;30134;47.866;-4.222;2023-12-04T05:49:17;5.78;;;2.60;;
44428;SDS011;30134;47.866;-4.222;2023-12-04T05:51:43;5.18;;;2.78;;
44428;SDS011;30134;47.866;-4.222;2023-12-04T05:54:09;3.35;;;1.90;;
44428;SDS011;30134;47.866;-4.222;2023-12-04T05:56:36;3.83;;;1.85;;
44428;SDS011;30134;47.866;-4.222;2023-12-04T05:59:02;3.22;;;2.00;;
44428;SDS011;30134;47.866;-4.222;2023-12-04T06:01:29;5.90;;;2.45;;
44428;SDS011;30134;47.866;-4.222;2023-12-04T06:03:55;4.90;;;2.58;;
44428;SDS011;30134;47.866;-4.222;2023-12-04T06:06:21;3.53;;;1.92;;
44428;SDS011;30134;47.866;-4.222;2023-12-04T06:08:47;3.78;;;2.25;;
44428;SDS011;30134;47.866;-4.222;2023-12-04T06:11:16;4.55;;;2.00;;
44428;SDS011;30134;47.866;-4.222;2023-12-04T06:13:42;4.78;;;2.13;;
44428;SDS011;30134;47.866;-4.222;2023-12-04T06:16:08;4.90;;;1.98;;
44428;SDS011;30134;47.866;-4.222;2023-12-04T06:18:34;4.28;;;1.70;;
44428;SDS011;30134;47.866;-4.222;2023-12-04T06:21:00;2.92;;;1.80;;
44428;SDS011;30134;47.866;-4.222;2023-12-04T06:23:27;3.83;;;1.95;;
44428;SDS011;30134;47.866;-4.222;2023-12-04T06:25:56;3.35;;;2.00;;
44428;SDS011;30134;47.866;-4.222;2023-12-04T06:28:23;3.88;;;1.95;;
44428;SDS011;30134;47.866;-4.222;2023-12-04T06:30:50;3.75;;;2.00;;
44428;SDS011;30134;47.866;-4.222;2023-12-04T06:33:16;4.07;;;2.20;;
44428;SDS011;30134;47.866;-4.222;2023-12-04T06:35:46;2.85;;;1.65;;
44428;SDS011;30134;47.866;-4.222;2023-12-04T06:38:14;4.78;;;2.10;;
44428;SDS011;30134;47.866;-4.222;2023-12-04T06:40:41;4.15;;;1.70;;
44428;SDS011;30134;47.866;-4.222;2023-12-04T06:43:08;2.83;;;1.65;;
44428;SDS011;30134;47.866;-4.222;2023-12-04T06:45:35;5.68;;;1.95;;
44428;SDS011;30134;47.866;-4.222;2023-12-04T06:48:02;2.28;;;1.50;;
44428;SDS011;30134;47.866;-4.222;2023-12-04T06:50:28;5.47;;;1.83;;
44428;SDS011;30134;47.866;-4.222;2023-12-04T06:52:55;3.20;;;1.60;;
44428;SDS011;30134;47.866;-4.222;2023-12-04T06:55:21;4.10;;;2.20;;
44428;SDS011;30134;47.866;-4.222;2023-12-04T06:57:50;2.85;;;1.75;;
44428;SDS011;30134;47.866;-4.222;2023-12-04T07:00:16;2.95;;;1.60;;
44428;SDS011;30134;47.866;-4.222;2023-12-04T07:02:42;2.72;;;1.67;;
44428;SDS011;30134;47.866;-4.222;2023-12-04T07:05:08;2.42;;;1.33;;
44428;SDS011;30134;47.866;-4.222;2023-12-04T07:07:34;2.08;;;1.30;;
44428;SDS011;30134;47.866;-4.222;2023-12-04T07:10:01;3.03;;;1.40;;
44428;SDS011;30134;47.866;-4.222;2023-12-04T07:12:27;2.75;;;1.65;;
44428;SDS011;30134;47.866;-4.222;2023-12-04T07:14:53;4.35;;;1.73;;
44428;SDS011;30134;47.866;-4.222;2023-12-04T07:17:20;2.75;;;1.42;;
44428;SDS011;30134;47.866;-4.222;2023-12-04T07:19:47;3.38;;;1.55;;
44428;SDS011;30134;47.866;-4.222;2023-12-04T07:22:14;2.63;;;1.35;;
44428;SDS011;30134;47.866;-4.222;2023-12-04T07:24:40;2.85;;;1.52;;
44428;SDS011;30134;47.866;-4.222;2023-12-04T07:27:05;2.08;;;1.23;;
44428;SDS011;30134;47.866;-4.222;2023-12-04T07:29:32;3.45;;;1.77;;
44428;SDS011;30134;47.866;-4.222;2023-12-04T07:31:58;2.33;;;1.35;;
44428;SDS011;30134;47.866;-4.222;2023-12-04T07:34:24;4.50;;;1.33;;
44428;SDS011;30134;47.866;-4.222;2023-12-04T07:36:50;3.60;;;1.35;;
44428;SDS011;30134;47.866;-4.222;2023-12-04T07:39:16;2.85;;;1.33;;
44428;SDS011;30134;47.866;-4.222;2023-12-04T07:41:41;2.55;;;1.58;;
44428;SDS011;30134;47.866;-4.222;2023-12-04T07:44:07;1.67;;;1.20;;
44428;SDS011;30134;47.866;-4.222;2023-12-04T07:46:33;1.52;;;1.20;;
44428;SDS011;30134;47.866;-4.222;2023-12-04T07:48:59;1.75;;;1.05;;
44428;SDS011;30134;47.866;-4.222;2023-12-04T07:51:25;2.42;;;1.45;;
44428;SDS011;30134;47.866;-4.222;2023-12-04T07:53:51;4.25;;;1.23;;
44428;SDS011;30134;47.866;-4.222;2023-12-04T07:56:21;2.85;;;1.27;;
44428;SDS011;30134;47.866;-4.222;2023-12-04T07:58:46;3.03;;;1.45;;
44428;SDS011;30134;47.866;-4.222;2023-12-04T08:01:13;2.92;;;1.30;;
44428;SDS011;30134;47.866;-4.222;2023-12-04T08:03:40;2.55;;;1.10;;
44428;SDS011;30134;47.866;-4.222;2023-12-04T08:06:06;2.65;;;1.23;;
44428;SDS011;30134;47.866;-4.222;2023-12-04T08:08:32;2.97;;;1.27;;
44428;SDS011;30134;47.866;-4.222;2023-12-04T08:10:58;3.55;;;0.90;;
44428;SDS011;30134;47.866;-4.222;2023-12-04T08:13:24;2.53;;;1.25;;
44428;SDS011;30134;47.866;-4.222;2023-12-04T08:15:50;2.35;;;1.40;;
44428;SDS011;30134;47.866;-4.222;2023-12-04T08:18:16;2.63;;;1.10;;
44428;SDS011;30134;47.866;-4.222;2023-12-04T08:20:43;1.85;;;1.15;;
44428;SDS011;30134;47.866;-4.222;2023-12-04T08:23:09;1.73;;;1.00;;
44428;SDS011;30134;47.866;-4.222;2023-12-04T08:25:35;3.72;;;1.33;;
44428;SDS011;30134;47.866;-4.222;2023-12-04T08:28:03;3.70;;;1.70;;
44428;SDS011;30134;47.866;-4.222;2023-12-04T08:30:29;3.50;;;1.30;;
44428;SDS011;30134;47.866;-4.222;2023-12-04T08:32:55;2.60;;;1.10;;
44428;SDS011;30134;47.866;-4.222;2023-12-04T08:35:22;2.58;;;1.08;;
44428;SDS011;30134;47.866;-4.222;2023-12-04T08:37:48;2.58;;;1.10;;
44428;SDS011;30134;47.866;-4.222;2023-12-04T08:40:14;1.55;;;1.00;;
44428;SDS011;30134;47.866;-4.222;2023-12-04T08:42:40;3.90;;;1.40;;
44428;SDS011;30134;47.866;-4.222;2023-12-04T08:45:09;3.42;;;1.23;;
44428;SDS011;30134;47.866;-4.222;2023-12-04T08:47:35;3.83;;;1.75;;
44428;SDS011;30134;47.866;-4.222;2023-12-04T08:50:02;3.25;;;1.70;;
44428;SDS011;30134;47.866;-4.222;2023-12-04T08:52:28;8.90;;;1.88;;
44428;SDS011;30134;47.866;-4.222;2023-12-04T08:54:54;4.05;;;1.58;;
44428;SDS011;30134;47.866;-4.222;2023-12-04T08:57:20;9.57;;;4.47;;
44428;SDS011;30134;47.866;-4.222;2023-12-04T08:59:46;15.38;;;7.50;;
44428;SDS011;30134;47.866;-4.222;2023-12-04T09:02:13;17.70;;;8.60;;
44428;SDS011;30134;47.866;-4.222;2023-12-04T09:04:39;21.52;;;10.20;;
44428;SDS011;30134;47.866;-4.222;2023-12-04T09:07:05;20.70;;;10.60;;
44428;SDS011;30134;47.866;-4.222;2023-12-04T09:09:31;21.77;;;11.10;;
44428;SDS011;30134;47.866;-4.222;2023-12-04T09:11:57;20.10;;;11.57;;
44428;SDS011;30134;47.866;-4.222;2023-12-04T09:14:24;19.52;;;10.23;;
44428;SDS011;30134;47.866;-4.222;2023-12-04T09:16:50;22.60;;;12.07;;
44428;SDS011;30134;47.866;-4.222;2023-12-04T09:19:16;19.58;;;10.55;;
44428;SDS011;30134;47.866;-4.222;2023-12-04T09:21:42;20.58;;;9.68;;
44428;SDS011;30134;47.866;-4.222;2023-12-04T09:24:12;17.88;;;9.60;;
44428;SDS011;30134;47.866;-4.222;2023-12-04T09:26:41;22.20;;;9.98;;
44428;SDS011;30134;47.866;-4.222;2023-12-04T09:29:10;20.70;;;10.35;;
44428;SDS011;30134;47.866;-4.222;2023-12-04T09:31:37;17.25;;;9.13;;
44428;SDS011;30134;47.866;-4.222;2023-12-04T09:34:04;15.93;;;8.55;;
44428;SDS011;30134;47.866;-4.222;2023-12-04T09:36:31;15.00;;;8.18;;
44428;SDS011;30134;47.866;-4.222;2023-12-04T09:39:00;16.88;;;8.43;;
44428;SDS011;30134;47.866;-4.222;2023-12-04T09:41:29;16.90;;;8.60;;
44428;SDS011;30134;47.866;-4.222;2023-12-04T09:43:56;15.13;;;7.40;;
44428;SDS011;30134;47.866;-4.222;2023-12-04T09:46:22;14.07;;;7.20;;
44428;SDS011;30134;47.866;-4.222;2023-12-04T09:48:52;13.68;;;7.07;;
44428;SDS011;30134;47.866;-4.222;2023-12-04T09:51:22;13.77;;;6.18;;
44428;SDS011;30134;47.866;-4.222;2023-12-04T09:53:50;12.50;;;6.18;;
44428;SDS011;30134;47.866;-4.222;2023-12-04T09:56:23;10.98;;;6.20;;
44428;SDS011;30134;47.866;-4.222;2023-12-04T09:58:58;13.73;;;6.40;;
44428;SDS011;30134;47.866;-4.222;2023-12-04T10:01:27;10.90;;;5.82;;
44428;SDS011;30134;47.866;-4.222;2023-12-04T10:03:56;11.70;;;5.30;;
44428;SDS011;30134;47.866;-4.222;2023-12-04T10:06:26;11.07;;;5.40;;
44428;SDS011;30134;47.866;-4.222;2023-12-04T10:08:54;11.75;;;5.50;;
44428;SDS011;30134;47.866;-4.222;2023-12-04T10:11:24;10.68;;;5.63;;
44428;SDS011;30134;47.866;-4.222;2023-12-04T10:13:52;12.18;;;4.95;;
44428;SDS011;30134;47.866;-4.222;2023-12-04T10:16:35;15.18;;;7.65;;
44428;SDS011;30134;47.866;-4.222;2023-12-04T10:21:51;33.05;;;14.98;;
44428;SDS011;30134;47.866;-4.222;2023-12-04T10:24:40;31.30;;;15.50;;
44428;SDS011;30134;47.866;-4.222;2023-12-04T10:27:05;30.35;;;15.90;;
44428;SDS011;30134;47.866;-4.222;2023-12-04T10:29:49;33.35;;;17.23;;
44428;SDS011;30134;47.866;-4.222;2023-12-04T10:32:19;29.25;;;15.68;;
44428;SDS011;30134;47.866;-4.222;2023-12-04T10:34:49;31.52;;;15.00;;
44428;SDS011;30134;47.866;-4.222;2023-12-04T10:37:15;24.92;;;14.52;;
44428;SDS011;30134;47.866;-4.222;2023-12-04T10:39:49;25.42;;;13.48;;
44428;SDS011;30134;47.866;-4.222;2023-12-04T10:42:26;25.85;;;14.38;;
44428;SDS011;30134;47.866;-4.222;2023-12-04T10:44:57;28.90;;;14.88;;
44428;SDS011;30134;47.866;-4.222;2023-12-04T10:47:24;29.45;;;14.32;;
44428;SDS011;30134;47.866;-4.222;2023-12-04T10:49:53;24.40;;;14.27;;
44428;SDS011;30134;47.866;-4.222;2023-12-04T10:52:23;30.17;;;14.05;;
44428;SDS011;30134;47.866;-4.222;2023-12-04T10:54:50;25.33;;;13.10;;
44428;SDS011;30134;47.866;-4.222;2023-12-04T10:57:21;25.65;;;13.30;;
44428;SDS011;30134;47.866;-4.222;2023-12-04T11:00:02;24.88;;;12.65;;
44428;SDS011;30134;47.866;-4.222;2023-12-04T11:02:32;25.20;;;12.43;;
44428;SDS011;30134;47.866;-4.222;2023-12-04T11:05:18;23.17;;;11.75;;
44428;SDS011;30134;47.866;-4.222;2023-12-04T11:08:00;21.27;;;10.57;;
44428;SDS011;30134;47.866;-4.222;2023-12-04T11:10:30;18.77;;;10.50;;
44428;SDS011;30134;47.866;-4.222;2023-12-04T11:13:00;20.70;;;10.00;;
44428;SDS011;30134;47.866;-4.222;2023-12-04T11:15:38;22.80;;;9.93;;
44428;SDS011;30134;47.866;-4.222;2023-12-04T11:18:07;18.75;;;8.48;;
44428;SDS011;30134;47.866;-4.222;2023-12-04T11:20:39;19.13;;;8.75;;
44428;SDS011;30134;47.866;-4.222;2023-12-04T11:23:13;19.15;;;8.93;;
44428;SDS011;30134;47.866;-4.222;2023-12-04T11:25:43;15.60;;;7.00;;
44428;SDS011;30134;47.866;-4.222;2023-12-04T11:28:10;13.70;;;5.40;;
44428;SDS011;30134;47.866;-4.222;2023-12-04T11:30:37;11.75;;;5.65;;
44428;SDS011;30134;47.866;-4.222;2023-12-04T11:33:06;13.77;;;6.95;;
44428;SDS011;30134;47.866;-4.222;2023-12-04T11:35:36;16.70;;;7.93;;
44428;SDS011;30134;47.866;-4.222;2023-12-04T11:38:06;26.00;;;9.32;;
44428;SDS011;30134;47.866;-4.222;2023-12-04T11:40:35;18.73;;;8.65;;
44428;SDS011;30134;47.866;-4.222;2023-12-04T11:46:06;18.80;;;9.23;;
44428;SDS011;30134;47.866;-4.222;2023-12-04T11:48:36;17.13;;;8.88;;
44428;SDS011;30134;47.866;-4.222;2023-12-04T11:51:04;16.40;;;8.57;;
44428;SDS011;30134;47.866;-4.222;2023-12-04T11:53:38;16.60;;;8.48;;
44428;SDS011;30134;47.866;-4.222;2023-12-04T11:56:08;16.63;;;8.45;;
44428;SDS011;30134;47.866;-4.222;2023-12-04T12:01:09;14.73;;;7.10;;
44428;SDS011;30134;47.866;-4.222;2023-12-04T12:03:36;16.88;;;7.65;;
44428;SDS011;30134;47.866;-4.222;2023-12-04T12:06:03;14.95;;;6.50;;
44428;SDS011;30134;47.866;-4.222;2023-12-04T12:08:29;13.95;;;6.55;;
44428;SDS011;30134;47.866;-4.222;2023-12-04T12:10:56;12.57;;;6.38;;
44428;SDS011;30134;47.866;-4.222;2023-12-04T12:13:23;12.07;;;5.97;;
44428;SDS011;30134;47.866;-4.222;2023-12-04T12:15:51;9.15;;;5.10;;
44428;SDS011;30134;47.866;-4.222;2023-12-04T12:18:18;9.98;;;4.88;;
44428;SDS011;30134;47.866;-4.222;2023-12-04T12:20:44;9.75;;;5.22;;
44428;SDS011;30134;47.866;-4.222;2023-12-04T12:23:10;9.98;;;5.28;;
44428;SDS011;30134;47.866;-4.222;2023-12-04T12:25:36;12.68;;;5.53;;
44428;SDS011;30134;47.866;-4.222;2023-12-04T12:28:06;9.90;;;5.32;;
44428;SDS011;30134;47.866;-4.222;2023-12-04T12:30:33;11.25;;;5.07;;
44428;SDS011;30134;47.866;-4.222;2023-12-04T12:32:59;11.27;;;5.20;;
44428;SDS011;30134;47.866;-4.222;2023-12-04T12:35:25;8.90;;;4.97;;
44428;SDS011;30134;47.866;-4.222;2023-12-04T12:37:51;6.03;;;3.67;;
44428;SDS011;30134;47.866;-4.222;2023-12-04T12:40:23;8.20;;;4.28;;
44428;SDS011;30134;47.866;-4.222;2023-12-04T12:42:52;8.77;;;3.67;;
44428;SDS011;30134;47.866;-4.222;2023-12-04T12:45:42;7.53;;;4.35;;
44428;SDS011;30134;47.866;-4.222;2023-12-04T12:48:13;9.30;;;4.15;;
44428;SDS011;30134;47.866;-4.222;2023-12-04T12:50:43;7.30;;;4.05;;
44428;SDS011;30134;47.866;-4.222;2023-12-04T12:53:13;7.45;;;3.90;;
44428;SDS011;30134;47.866;-4.222;2023-12-04T12:55:43;7.72;;;3.08;;
44428;SDS011;30134;47.866;-4.222;2023-12-04T12:58:09;8.02;;;3.65;;
44428;SDS011;30134;47.866;-4.222;2023-12-04T13:00:39;10.75;;;3.58;;
44428;SDS011;30134;47.866;-4.222;2023-12-04T13:03:17;5.90;;;3.10;;
44428;SDS011;30134;47.866;-4.222;2023-12-04T13:05:44;7.88;;;3.05;;
44428;SDS011;30134;47.866;-4.222;2023-12-04T13:08:11;8.15;;;3.60;;
44428;SDS011;30134;47.866;-4.222;2023-12-04T13:10:37;5.85;;;2.75;;
44428;SDS011;30134;47.866;-4.222;2023-12-04T13:13:13;6.95;;;2.65;;
44428;SDS011;30134;47.866;-4.222;2023-12-04T13:15:40;6.63;;;2.70;;
44428;SDS011;30134;47.866;-4.222;2023-12-04T13:18:07;7.32;;;2.72;;
44428;SDS011;30134;47.866;-4.222;2023-12-04T13:20:34;5.55;;;2.47;;
44428;SDS011;30134;47.866;-4.222;2023-12-04T13:23:00;6.22;;;2.40;;
44428;SDS011;30134;47.866;-4.222;2023-12-04T13:25:29;4.15;;;2.30;;
44428;SDS011;30134;47.866;-4.222;2023-12-04T13:27:55;4.57;;;2.33;;
44428;SDS011;30134;47.866;-4.222;2023-12-04T13:30:21;4.13;;;2.08;;
44428;SDS011;30134;47.866;-4.222;2023-12-04T13:32:47;7.03;;;2.38;;
44428;SDS011;30134;47.866;-4.222;2023-12-04T13:35:17;4.47;;;2.05;;
44428;SDS011;30134;47.866;-4.222;2023-12-04T13:37:43;5.95;;;2.10;;
44428;SDS011;30134;47.866;-4.222;2023-12-04T13:40:11;4.90;;;2.35;;
44428;SDS011;30134;47.866;-4.222;2023-12-04T13:42:41;6.47;;;2.38;;
44428;SDS011;30134;47.866;-4.222;2023-12-04T13:45:25;7.28;;;2.65;;
44428;SDS011;30134;47.866;-4.222;2023-12-04T13:47:51;7.35;;;2.22;;
44428;SDS011;30134;47.866;-4.222;2023-12-04T13:50:18;8.50;;;2.08;;
44428;SDS011;30134;47.866;-4.222;2023-12-04T13:52:44;5.93;;;2.92;;
44428;SDS011;30134;47.866;-4.222;2023-12-04T13:55:17;12.00;;;5.80;;
44428;SDS011;30134;47.866;-4.222;2023-12-04T13:57:59;13.45;;;7.57;;
44428;SDS011;30134;47.866;-4.222;2023-12-04T14:00:25;16.77;;;8.25;;
44428;SDS011;30134;47.866;-4.222;2023-12-04T14:02:51;19.00;;;9.40;;
44428;SDS011;30134;47.866;-4.222;2023-12-04T14:05:31;19.20;;;10.02;;
44428;SDS011;30134;47.866;-4.222;2023-12-04T14:07:58;20.92;;;9.13;;
44428;SDS011;30134;47.866;-4.222;2023-12-04T14:10:27;18.58;;;8.60;;
44428;SDS011;30134;47.866;-4.222;2023-12-04T14:12:54;17.40;;;8.75;;
44428;SDS011;30134;47.866;-4.222;2023-12-04T14:15:20;14.38;;;8.07;;
44428;SDS011;30134;47.866;-4.222;2023-12-04T14:17:46;14.27;;;7.63;;
44428;SDS011;30134;47.866;-4.222;2023-12-04T14:20:12;13.93;;;7.85;;
44428;SDS011;30134;47.866;-4.222;2023-12-04T14:22:42;15.50;;;7.88;;
44428;SDS011;30134;47.866;-4.222;2023-12-04T14:25:12;15.85;;;7.85;;
44428;SDS011;30134;47.866;-4.222;2023-12-04T14:27:37;13.23;;;7.10;;
44428;SDS011;30134;47.866;-4.222;2023-12-04T14:30:08;12.88;;;7.05;;
44428;SDS011;30134;47.866;-4.222;2023-12-04T14:32:35;15.15;;;7.13;;
44428;SDS011;30134;47.866;-4.222;2023-12-04T14:35:02;12.57;;;6.75;;